Time;durP1;ratioP1;P1;durP2;ratioP2;P2;SDS_P1;SDS_P2;PMS_P1;PMS_P2;Temp;Humidity;BMP_temperature;BMP_pressure;BME280_temperature;BME280_humidity;BME280_pressure;Samples;Min_cycle;Max_cycle;Signal;HPM_P1;HPM_P2
2020/12/23 00:00:24;;;;;;;3.63;1.90;;;12.00;99.90;;;;;;4973908;28;20057;-66
2020/12/23 00:03:05;;;;;;;7.07;2.22;;;11.90;99.90;;;;;;4974806;28;20413;-66
2020/12/23 00:05:31;;;;;;;3.70;1.92;;;11.90;99.90;;;;;;4973036;28;20055;-67
2020/12/23 00:07:58;;;;;;;4.57;2.15;;;11.90;99.90;;;;;;4973420;28;20454;-66
2020/12/23 00:10:24;;;;;;;3.38;1.85;;;12.00;99.90;;;;;;4971241;28;20446;-67
2020/12/23 00:12:51;;;;;;;4.57;1.75;;;12.00;99.90;;;;;;4972831;28;20043;-67
2020/12/23 00:15:18;;;;;;;3.78;1.35;;;12.00;99.90;;;;;;4972817;28;20043;-66
2020/12/23 00:17:45;;;;;;;2.80;1.40;;;12.10;99.90;;;;;;4954583;28;20049;-66
2020/12/23 00:20:11;;;;;;;3.15;1.50;;;12.10;99.90;;;;;;4973447;28;20071;-66
2020/12/23 00:22:38;;;;;;;3.10;1.77;;;12.10;99.90;;;;;;4973766;28;20137;-66
2020/12/23 00:25:05;;;;;;;5.15;1.70;;;12.10;99.90;;;;;;4975707;28;20390;-67
2020/12/23 00:27:32;;;;;;;4.05;2.03;;;12.00;99.90;;;;;;4974251;28;20054;-66
2020/12/23 00:29:58;;;;;;;4.65;1.67;;;12.10;99.90;;;;;;4974271;28;20090;-66
2020/12/23 00:32:28;;;;;;;3.05;1.50;;;12.00;99.90;;;;;;4971248;28;20046;-66
2020/12/23 00:34:55;;;;;;;3.55;1.60;;;12.10;99.90;;;;;;4973801;28;20057;-65
2020/12/23 00:37:23;;;;;;;4.40;1.75;;;12.10;99.90;;;;;;4972854;28;20058;-67
2020/12/23 00:39:49;;;;;;;2.45;1.40;;;12.20;99.90;;;;;;4973268;28;20133;-67
2020/12/23 00:42:21;;;;;;;4.15;1.40;;;12.20;99.90;;;;;;4972192;28;20057;-68
2020/12/23 00:44:47;;;;;;;2.80;1.35;;;12.10;99.90;;;;;;4971392;28;20050;-69
2020/12/23 00:47:14;;;;;;;4.20;1.75;;;12.30;99.90;;;;;;4972409;28;20633;-68
2020/12/23 00:49:41;;;;;;;4.38;1.63;;;12.20;99.90;;;;;;4973162;28;20043;-69
2020/12/23 00:52:08;;;;;;;3.70;1.40;;;12.20;99.90;;;;;;4973267;28;20057;-67
2020/12/23 00:54:35;;;;;;;2.28;1.27;;;12.20;99.90;;;;;;4972081;28;20493;-68
2020/12/23 00:57:02;;;;;;;3.13;1.50;;;12.20;99.90;;;;;;4972226;28;20053;-68
2020/12/23 00:59:29;;;;;;;5.95;1.85;;;12.20;99.90;;;;;;4973230;28;20050;-67
2020/12/23 01:01:57;;;;;;;3.17;1.65;;;12.20;99.90;;;;;;4972261;28;20373;-66
2020/12/23 01:04:23;;;;;;;2.83;1.50;;;12.20;99.90;;;;;;4972120;28;20038;-68
2020/12/23 01:06:50;;;;;;;2.55;1.20;;;12.20;99.90;;;;;;4972767;28;20053;-68
2020/12/23 01:09:17;;;;;;;3.22;1.48;;;12.30;99.90;;;;;;4973107;28;20062;-67
2020/12/23 01:11:43;;;;;;;3.35;1.80;;;12.30;99.90;;;;;;4971625;28;20057;-67
2020/12/23 01:14:10;;;;;;;4.72;1.30;;;12.30;99.90;;;;;;4973263;28;20055;-66
2020/12/23 01:16:36;;;;;;;3.22;1.52;;;12.30;99.90;;;;;;4970959;28;20051;-67
2020/12/23 01:19:03;;;;;;;2.88;1.50;;;12.30;99.90;;;;;;4969289;28;20046;-67
2020/12/23 01:21:29;;;;;;;3.15;1.30;;;12.30;99.90;;;;;;4972270;28;20051;-67
2020/12/23 01:23:56;;;;;;;5.43;1.50;;;12.20;99.90;;;;;;4971777;28;20133;-67
2020/12/23 01:26:22;;;;;;;2.35;1.23;;;12.30;99.90;;;;;;4972358;28;20054;-67
2020/12/23 01:28:49;;;;;;;2.28;1.10;;;12.20;99.90;;;;;;4972897;28;20046;-67
2020/12/23 01:31:15;;;;;;;2.95;1.50;;;12.30;99.90;;;;;;4951679;28;20042;-66
2020/12/23 01:33:42;;;;;;;3.28;1.30;;;12.30;99.90;;;;;;4974619;28;20061;-66
2020/12/23 01:36:12;;;;;;;1.92;1.17;;;12.30;99.90;;;;;;4975417;28;20050;-66
2020/12/23 01:38:39;;;;;;;3.72;1.50;;;12.30;99.90;;;;;;4974614;28;20054;-67
2020/12/23 01:41:06;;;;;;;1.88;1.20;;;12.20;99.90;;;;;;4972074;28;20050;-66
2020/12/23 01:43:33;;;;;;;1.83;1.05;;;12.20;99.90;;;;;;4973858;28;20053;-67
2020/12/23 01:46:00;;;;;;;3.20;1.15;;;12.20;99.90;;;;;;4972729;28;20069;-67
2020/12/23 01:48:31;;;;;;;2.70;1.40;;;12.20;99.90;;;;;;4971979;28;20062;-67
2020/12/23 01:50:59;;;;;;;2.33;1.38;;;12.20;99.90;;;;;;4972258;28;20070;-67
2020/12/23 01:53:26;;;;;;;2.78;1.30;;;12.20;99.90;;;;;;4972069;28;20070;-67
2020/12/23 01:55:55;;;;;;;3.60;1.27;;;12.20;99.90;;;;;;4971274;28;20059;-67
2020/12/23 01:58:21;;;;;;;2.40;1.13;;;12.30;99.90;;;;;;4972225;28;20057;-67
2020/12/23 02:00:48;;;;;;;2.05;1.13;;;12.30;99.90;;;;;;4972115;28;20061;-67
2020/12/23 02:03:20;;;;;;;3.00;1.55;;;12.30;99.90;;;;;;4972232;28;20047;-67
2020/12/23 02:05:47;;;;;;;3.67;1.40;;;12.30;99.90;;;;;;4971052;28;20062;-67
2020/12/23 02:08:13;;;;;;;2.30;1.33;;;12.30;99.90;;;;;;4972380;28;20054;-66
2020/12/23 02:10:40;;;;;;;2.00;1.30;;;12.30;99.90;;;;;;4971328;28;20054;-66
2020/12/23 02:13:09;;;;;;;2.08;1.30;;;12.30;99.90;;;;;;4969327;28;20055;-67
2020/12/23 02:15:36;;;;;;;3.08;1.48;;;12.30;99.90;;;;;;4968430;28;20055;-66
2020/12/23 02:18:03;;;;;;;4.13;1.63;;;12.40;99.90;;;;;;4972390;28;20741;-67
2020/12/23 02:20:29;;;;;;;2.45;1.20;;;12.30;99.90;;;;;;4965368;28;20078;-66
2020/12/23 02:22:56;;;;;;;3.22;1.50;;;12.30;99.90;;;;;;4972205;28;20043;-66
2020/12/23 02:25:22;;;;;;;3.38;1.33;;;12.30;99.90;;;;;;4971677;28;20047;-67
2020/12/23 02:27:49;;;;;;;1.58;1.08;;;12.30;99.90;;;;;;4965203;28;20046;-67
2020/12/23 02:30:15;;;;;;;1.60;1.10;;;12.40;99.90;;;;;;4974182;28;20050;-67
2020/12/23 02:32:42;;;;;;;3.15;1.23;;;12.40;99.90;;;;;;4974674;28;20477;-67
2020/12/23 02:35:09;;;;;;;3.03;1.23;;;12.50;99.90;;;;;;4975986;28;20779;-66
2020/12/23 02:37:36;;;;;;;3.63;1.30;;;12.50;99.90;;;;;;4975277;28;20505;-66
2020/12/23 02:40:04;;;;;;;2.53;1.20;;;12.50;99.90;;;;;;4975680;28;20064;-66
2020/12/23 02:42:31;;;;;;;2.70;1.20;;;12.50;99.90;;;;;;4975607;28;20047;-67
2020/12/23 02:44:58;;;;;;;1.88;1.23;;;12.50;99.90;;;;;;4975265;28;20066;-67
2020/12/23 02:47:24;;;;;;;4.68;1.15;;;12.50;99.90;;;;;;4975301;28;20491;-66
2020/12/23 02:49:51;;;;;;;2.40;1.20;;;12.50;99.90;;;;;;4975396;28;20057;-66
2020/12/23 02:52:17;;;;;;;3.33;1.45;;;12.40;99.90;;;;;;4975276;28;20130;-67
2020/12/23 02:54:44;;;;;;;2.40;1.20;;;12.40;99.90;;;;;;4975078;28;20069;-67
2020/12/23 02:57:11;;;;;;;3.38;1.40;;;12.40;99.90;;;;;;4973243;28;20057;-67
2020/12/23 02:59:39;;;;;;;3.42;1.27;;;12.40;99.90;;;;;;4975089;28;20051;-67
2020/12/23 03:02:07;;;;;;;4.38;1.30;;;12.30;99.90;;;;;;4956367;28;20537;-67
2020/12/23 03:04:33;;;;;;;2.28;1.40;;;12.30;99.90;;;;;;4975938;28;20051;-66
2020/12/23 03:07:00;;;;;;;2.28;1.30;;;12.30;99.90;;;;;;4974488;28;20087;-67
2020/12/23 03:09:26;;;;;;;2.92;1.30;;;12.30;99.90;;;;;;4974493;28;20061;-66
2020/12/23 03:11:53;;;;;;;3.92;1.30;;;12.30;99.90;;;;;;4974461;28;20058;-66
2020/12/23 03:14:19;;;;;;;2.78;1.20;;;12.30;99.90;;;;;;4975381;28;20058;-66
2020/12/23 03:16:46;;;;;;;3.55;1.38;;;12.30;99.90;;;;;;4975083;28;20042;-67
2020/12/23 03:19:12;;;;;;;2.25;1.35;;;12.30;99.90;;;;;;4975668;28;20050;-67
2020/12/23 03:21:39;;;;;;;2.42;1.20;;;12.30;99.90;;;;;;4973649;28;20051;-67
2020/12/23 03:24:06;;;;;;;5.88;1.63;;;12.30;99.90;;;;;;4975175;28;20055;-65
2020/12/23 03:26:32;;;;;;;2.80;1.30;;;12.30;99.90;;;;;;4973225;28;20401;-67
2020/12/23 03:28:59;;;;;;;3.40;1.15;;;12.30;99.90;;;;;;4974395;28;20047;-67
2020/12/23 03:31:27;;;;;;;1.90;1.17;;;12.30;99.90;;;;;;4975490;28;20060;-66
2020/12/23 03:33:53;;;;;;;2.33;1.30;;;12.30;99.90;;;;;;4974239;28;20043;-67
2020/12/23 03:36:20;;;;;;;2.38;1.40;;;12.20;99.90;;;;;;4973826;28;20047;-67
2020/12/23 03:38:46;;;;;;;2.80;1.58;;;12.20;99.90;;;;;;4974383;28;20057;-67
2020/12/23 03:41:13;;;;;;;5.13;1.52;;;12.20;99.90;;;;;;4972572;28;20489;-67
2020/12/23 03:43:39;;;;;;;2.78;1.25;;;12.20;99.90;;;;;;4973900;28;20057;-66
2020/12/23 03:46:06;;;;;;;2.55;1.42;;;12.30;99.90;;;;;;4973977;28;20054;-67
2020/12/23 03:48:32;;;;;;;3.83;1.45;;;12.30;99.90;;;;;;4974573;28;20519;-67
2020/12/23 03:50:59;;;;;;;2.38;1.17;;;12.30;99.90;;;;;;4973216;28;20050;-67
2020/12/23 03:53:25;;;;;;;1.65;1.00;;;12.30;99.90;;;;;;4973849;28;20050;-67
2020/12/23 03:55:52;;;;;;;1.95;1.17;;;12.40;99.90;;;;;;4972802;28;20053;-66
2020/12/23 03:58:18;;;;;;;2.53;1.00;;;12.40;99.90;;;;;;4974239;28;20055;-67
2020/12/23 04:00:45;;;;;;;2.67;1.35;;;12.50;99.90;;;;;;4973890;28;20070;-69
2020/12/23 04:03:11;;;;;;;2.60;1.38;;;12.50;99.90;;;;;;4974393;28;20552;-67
2020/12/23 04:05:38;;;;;;;3.65;1.35;;;12.50;99.90;;;;;;4973314;28;20051;-67
2020/12/23 04:08:05;;;;;;;2.75;1.20;;;12.40;99.90;;;;;;4973390;28;20050;-67
2020/12/23 04:10:32;;;;;;;3.00;1.10;;;12.50;99.90;;;;;;4973911;28;20565;-67
2020/12/23 04:12:59;;;;;;;2.42;1.30;;;12.50;99.90;;;;;;4956672;28;20047;-66
2020/12/23 04:15:26;;;;;;;2.47;1.20;;;12.50;99.90;;;;;;4973845;28;20054;-67
2020/12/23 04:17:54;;;;;;;3.65;1.17;;;12.50;99.90;;;;;;4961255;28;20049;-66
2020/12/23 04:20:21;;;;;;;4.47;1.20;;;12.50;99.90;;;;;;4974048;28;20050;-67
2020/12/23 04:22:48;;;;;;;3.33;1.17;;;12.60;99.90;;;;;;4975143;28;20058;-66
2020/12/23 04:25:14;;;;;;;2.00;1.17;;;12.60;99.90;;;;;;4973816;28;20772;-68
2020/12/23 04:27:41;;;;;;;1.80;1.00;;;12.60;99.90;;;;;;4973182;28;20050;-67
2020/12/23 04:30:08;;;;;;;3.83;1.20;;;12.60;99.90;;;;;;4969558;28;20081;-67
2020/12/23 04:32:36;;;;;;;4.00;1.20;;;12.60;99.90;;;;;;4973546;28;20050;-67
2020/12/23 04:35:04;;;;;;;3.72;1.25;;;12.50;99.90;;;;;;4973476;28;20051;-66
2020/12/23 04:37:32;;;;;;;2.30;1.30;;;12.40;99.90;;;;;;4972284;28;20042;-67
2020/12/23 04:39:59;;;;;;;4.70;1.30;;;12.40;99.90;;;;;;4973276;28;20046;-66
2020/12/23 04:42:27;;;;;;;3.15;1.50;;;12.40;99.90;;;;;;4963309;28;20062;-67
2020/12/23 04:44:54;;;;;;;3.13;1.33;;;12.30;99.90;;;;;;4973166;28;20061;-66
2020/12/23 04:47:26;;;;;;;1.92;1.20;;;12.30;99.90;;;;;;4972497;28;20055;-66
2020/12/23 04:49:54;;;;;;;2.42;1.23;;;12.30;99.90;;;;;;4967419;28;20043;-67
2020/12/23 04:52:35;;;;;;;2.67;1.30;;;12.30;99.90;;;;;;4971334;28;20049;-67
2020/12/23 04:55:07;;;;;;;3.35;1.20;;;12.30;99.90;;;;;;4972091;28;20039;-67
2020/12/23 04:57:37;;;;;;;8.35;1.30;;;12.30;99.90;;;;;;4971896;28;20050;-66
2020/12/23 05:00:07;;;;;;;2.67;1.15;;;12.20;99.90;;;;;;4973392;28;20058;-67
2020/12/23 05:02:34;;;;;;;2.58;1.40;;;12.20;99.90;;;;;;4972830;28;20050;-67
2020/12/23 05:05:15;;;;;;;5.07;1.50;;;12.20;99.90;;;;;;4968289;28;20058;-67
2020/12/23 05:07:42;;;;;;;6.57;1.75;;;12.20;99.90;;;;;;4972430;28;20051;-67
2020/12/23 05:10:08;;;;;;;2.63;1.30;;;12.10;99.90;;;;;;4972905;28;20066;-67
2020/12/23 05:12:35;;;;;;;2.45;1.40;;;12.10;99.90;;;;;;4955350;28;20462;-68
2020/12/23 05:15:06;;;;;;;6.88;1.60;;;12.20;99.90;;;;;;4973482;28;20051;-68
2020/12/23 05:17:33;;;;;;;4.03;1.60;;;12.10;99.90;;;;;;4969943;28;20043;-67
2020/12/23 05:20:01;;;;;;;4.43;1.73;;;12.10;99.90;;;;;;4972814;28;20054;-67
2020/12/23 05:22:28;;;;;;;2.58;1.63;;;12.10;99.90;;;;;;4970277;28;20043;-67
2020/12/23 05:24:55;;;;;;;2.83;1.52;;;12.00;99.90;;;;;;4972828;28;20043;-67
2020/12/23 05:27:23;;;;;;;3.78;1.70;;;12.00;99.90;;;;;;4972072;28;20405;-66
2020/12/23 05:29:50;;;;;;;4.97;1.95;;;11.90;99.90;;;;;;4972844;28;20392;-66
2020/12/23 05:32:16;;;;;;;2.58;1.48;;;12.00;99.90;;;;;;4971322;28;20047;-66
2020/12/23 05:34:43;;;;;;;3.70;1.67;;;12.00;99.90;;;;;;4972026;28;20043;-67
2020/12/23 05:37:10;;;;;;;2.53;1.73;;;12.00;99.90;;;;;;4972131;28;20130;-69
2020/12/23 05:39:37;;;;;;;4.07;1.90;;;11.90;99.90;;;;;;4972768;28;20069;-69
2020/12/23 05:42:03;;;;;;;4.65;1.95;;;11.90;99.90;;;;;;4971827;28;20142;-68
2020/12/23 05:44:30;;;;;;;2.85;1.60;;;11.90;99.90;;;;;;4972111;28;20050;-69
2020/12/23 05:46:56;;;;;;;3.08;1.60;;;11.90;99.90;;;;;;4973275;28;20058;-69
2020/12/23 05:49:25;;;;;;;3.97;2.03;;;11.80;99.90;;;;;;4981236;28;20059;-69
2020/12/23 05:51:52;;;;;;;3.25;1.90;;;11.80;99.90;;;;;;4971377;28;20047;-71
2020/12/23 05:54:20;;;;;;;2.58;1.42;;;11.80;99.90;;;;;;4971941;28;20046;-69
2020/12/23 05:56:51;;;;;;;4.68;1.77;;;11.80;99.90;;;;;;4966723;28;20046;-69
2020/12/23 05:59:19;;;;;;;3.53;1.77;;;11.80;99.90;;;;;;4961194;28;20386;-69
2020/12/23 06:01:49;;;;;;;3.00;1.60;;;11.80;99.90;;;;;;4970577;28;20055;-69
2020/12/23 06:04:17;;;;;;;2.70;1.58;;;11.80;99.90;;;;;;4954595;28;20138;-69
2020/12/23 06:07:05;;;;;;;;;;;11.80;99.90;;;;;;4972283;28;20061;-70
2020/12/23 06:09:37;;;;;;;3.50;1.90;;;11.80;99.90;;;;;;4972431;28;20324;-70
2020/12/23 06:12:18;;;;;;;3.15;2.00;;;11.70;99.90;;;;;;4965406;28;20476;-70
2020/12/23 06:14:56;;;;;;;3.97;2.00;;;11.70;99.90;;;;;;4962022;28;20130;-69
2020/12/23 06:17:24;;;;;;;3.88;2.10;;;11.70;99.90;;;;;;4971428;28;20059;-69
2020/12/23 06:19:55;;;;;;;3.97;2.30;;;11.70;99.90;;;;;;4972402;28;20105;-69
2020/12/23 06:22:27;;;;;;;3.35;2.17;;;11.60;99.90;;;;;;4954659;28;20050;-69
2020/12/23 06:24:53;;;;;;;8.40;2.47;;;11.60;99.90;;;;;;4961874;28;20421;-69
2020/12/23 06:27:20;;;;;;;3.33;2.00;;;11.60;99.90;;;;;;4971241;28;20066;-69
2020/12/23 06:29:48;;;;;;;3.65;2.22;;;11.70;99.90;;;;;;4971751;28;20039;-69
2020/12/23 06:32:24;;;;;;;6.20;2.58;;;11.60;99.90;;;;;;4967885;28;20047;-68
2020/12/23 06:34:58;;;;;;;5.70;2.67;;;11.60;99.90;;;;;;4970211;28;20058;-69
2020/12/23 06:37:30;;;;;;;6.07;2.97;;;11.60;99.90;;;;;;4952831;28;20054;-69
2020/12/23 06:39:57;;;;;;;4.90;2.08;;;11.60;99.90;;;;;;4967769;28;20046;-69
2020/12/23 06:42:26;;;;;;;4.60;2.22;;;11.60;99.90;;;;;;4967798;28;20065;-68
2020/12/23 06:44:56;;;;;;;3.80;2.30;;;11.60;99.90;;;;;;4967592;28;20505;-68
2020/12/23 06:47:24;;;;;;;4.65;2.13;;;11.60;99.90;;;;;;4965527;28;20047;-68
2020/12/23 06:49:58;;;;;;;4.63;2.20;;;11.70;99.90;;;;;;4971094;28;20055;-69
2020/12/23 06:52:26;;;;;;;5.57;2.92;;;11.60;99.90;;;;;;4971115;28;20051;-69
2020/12/23 06:55:01;;;;;;;4.47;2.85;;;11.60;99.90;;;;;;4971235;28;20433;-69
2020/12/23 06:57:34;;;;;;;6.07;2.47;;;11.60;99.90;;;;;;4964432;28;20054;-69
2020/12/23 07:00:01;;;;;;;4.78;2.53;;;11.60;99.90;;;;;;4965118;28;20063;-68
2020/12/23 07:02:27;;;;;;;7.32;3.55;;;11.60;99.90;;;;;;4971178;28;20043;-69
2020/12/23 07:04:54;;;;;;;9.93;4.00;;;11.60;99.90;;;;;;4971216;28;20039;-69
2020/12/23 07:07:41;;;;;;;6.97;3.88;;;11.60;99.90;;;;;;4970461;28;20093;-69
2020/12/23 07:10:15;;;;;;;7.25;3.65;;;11.60;99.90;;;;;;4971483;28;20043;-70
2020/12/23 07:12:55;;;;;;;8.98;3.53;;;11.60;99.90;;;;;;4963231;28;20043;-69
2020/12/23 07:15:29;;;;;;;9.95;3.40;;;11.60;99.90;;;;;;4949975;28;20058;-68
2020/12/23 07:18:05;;;;;;;7.90;3.67;;;11.50;99.90;;;;;;4973509;28;20056;-68
2020/12/23 07:20:35;;;;;;;8.15;3.90;;;11.50;99.90;;;;;;4974330;28;20043;-68
2020/12/23 07:23:07;;;;;;;5.47;3.10;;;11.50;99.90;;;;;;4970523;28;20065;-68
2020/12/23 07:25:40;;;;;;;6.15;3.30;;;11.50;99.90;;;;;;4970430;28;20129;-69
2020/12/23 07:28:08;;;;;;;5.72;3.17;;;11.50;99.90;;;;;;4974279;28;20062;-70
2020/12/23 07:30:37;;;;;;;7.43;3.58;;;11.50;99.90;;;;;;4973543;28;20127;-68
2020/12/23 07:33:08;;;;;;;5.88;3.42;;;11.50;99.90;;;;;;4964659;28;20062;-68
2020/12/23 07:35:35;;;;;;;9.27;3.58;;;11.50;99.90;;;;;;4972802;28;20062;-68
2020/12/23 07:38:04;;;;;;;4.75;3.17;;;11.40;99.90;;;;;;4973726;28;20062;-69
2020/12/23 07:40:32;;;;;;;9.75;3.20;;;11.50;99.90;;;;;;4973619;28;20482;-69
2020/12/23 07:42:59;;;;;;;5.15;2.88;;;11.50;99.90;;;;;;4957064;28;20057;-69
2020/12/23 07:45:27;;;;;;;5.55;2.90;;;11.40;99.90;;;;;;4971801;28;20047;-69
2020/12/23 07:48:02;;;;;;;5.18;2.72;;;11.50;99.90;;;;;;4973174;28;20181;-69
2020/12/23 07:50:35;;;;;;;4.90;2.67;;;11.40;99.90;;;;;;4973804;28;20136;-68
2020/12/23 07:53:16;;;;;;;4.93;2.60;;;11.40;99.90;;;;;;4966329;28;20509;-68
2020/12/23 07:55:44;;;;;;;6.50;2.38;;;11.40;99.90;;;;;;4967686;28;20042;-68
2020/12/23 07:58:12;;;;;;;4.38;2.00;;;11.40;99.90;;;;;;4971128;28;20486;-68
2020/12/23 08:00:41;;;;;;;4.97;2.20;;;11.50;99.90;;;;;;4972014;28;20073;-68
2020/12/23 08:03:07;;;;;;;3.85;1.75;;;11.40;99.90;;;;;;4969327;28;20074;-68
2020/12/23 08:05:38;;;;;;;5.07;1.88;;;11.40;99.90;;;;;;4973303;28;20055;-68
2020/12/23 08:08:27;;;;;;;3.30;1.80;;;11.40;99.90;;;;;;4972914;28;20061;-69
2020/12/23 08:10:54;;;;;;;3.97;2.00;;;11.40;99.90;;;;;;4973387;28;20043;-69
2020/12/23 08:13:27;;;;;;;4.03;1.88;;;11.40;99.90;;;;;;4973588;28;20110;-69
2020/12/23 08:16:15;;;;;;;3.97;1.98;;;11.30;99.90;;;;;;4971791;28;20050;-68
2020/12/23 08:18:42;;;;;;;2.97;1.60;;;11.40;99.90;;;;;;4970909;28;20576;-68
2020/12/23 08:21:14;;;;;;;2.72;1.50;;;11.30;99.90;;;;;;4967809;28;20061;-65
2020/12/23 08:23:41;;;;;;;3.00;1.40;;;11.30;99.90;;;;;;4970646;28;20049;-66
2020/12/23 08:26:12;;;;;;;2.97;1.50;;;11.30;99.90;;;;;;4972648;28;20058;-66
2020/12/23 08:28:44;;;;;;;3.05;1.48;;;11.20;99.90;;;;;;4970860;28;20138;-66
2020/12/23 08:31:22;;;;;;;3.58;1.90;;;11.20;99.90;;;;;;4968691;28;20043;-64
2020/12/23 08:33:50;;;;;;;3.08;1.70;;;11.20;99.90;;;;;;4964901;28;20050;-65
2020/12/23 08:36:16;;;;;;;4.05;1.88;;;11.20;99.90;;;;;;4971013;28;20047;-65
2020/12/23 08:38:43;;;;;;;5.43;2.70;;;11.20;99.90;;;;;;4973343;28;20039;-66
2020/12/23 08:41:17;;;;;;;7.35;2.80;;;11.20;99.90;;;;;;4971198;28;20145;-67
2020/12/23 08:43:48;;;;;;;6.70;2.78;;;11.20;99.90;;;;;;4972718;28;20069;-66
2020/12/23 08:46:27;;;;;;;4.47;2.45;;;11.20;99.90;;;;;;4971268;28;20054;-66
2020/12/23 08:48:55;;;;;;;6.15;2.30;;;11.20;99.90;;;;;;4937079;29;20051;-66
2020/12/23 08:51:23;;;;;;;4.55;2.30;;;11.20;99.90;;;;;;4955267;28;20053;-67
2020/12/23 08:53:54;;;;;;;4.72;2.38;;;11.20;99.90;;;;;;4973276;28;20134;-66
2020/12/23 08:56:26;;;;;;;4.18;2.30;;;11.20;99.90;;;;;;4954025;28;20073;-66
2020/12/23 08:59:04;;;;;;;3.80;1.88;;;11.20;99.90;;;;;;4971824;28;20076;-66
2020/12/23 09:01:32;;;;;;;4.25;2.00;;;11.30;99.90;;;;;;4969431;28;20060;-66
2020/12/23 09:04:12;;;;;;;4.00;2.50;;;11.20;99.90;;;;;;4972804;28;20535;-66
2020/12/23 09:06:41;;;;;;;5.78;3.42;;;11.20;99.90;;;;;;4971448;28;20050;-66
2020/12/23 09:09:22;;;;;;;5.90;2.83;;;11.20;99.90;;;;;;4971839;28;20047;-66
2020/12/23 09:11:49;;;;;;;6.37;2.70;;;11.20;99.90;;;;;;4964636;28;20142;-66
2020/12/23 09:14:42;;;;;;;4.00;2.10;;;11.10;99.90;;;;;;4969969;28;20042;-66
2020/12/23 09:17:14;;;;;;;4.43;2.25;;;11.10;99.90;;;;;;4967119;28;20489;-66
2020/12/23 09:19:42;;;;;;;3.25;1.63;;;11.10;99.90;;;;;;4954573;28;20038;-66
2020/12/23 09:22:10;;;;;;;3.42;1.75;;;11.20;99.90;;;;;;4971293;28;20062;-66
2020/12/23 09:24:36;;;;;;;5.30;2.53;;;11.20;99.90;;;;;;4970748;28;20584;-67
2020/12/23 09:27:24;;;;;;;4.72;2.00;;;11.20;99.90;;;;;;4972575;28;20065;-67
2020/12/23 09:29:52;;;;;;;3.65;2.13;;;11.30;99.90;;;;;;4970035;28;20050;-65
2020/12/23 09:32:18;;;;;;;4.82;2.00;;;11.30;99.90;;;;;;4971489;28;20559;-66
2020/12/23 09:35:14;;;;;;;6.43;3.05;;;11.30;99.90;;;;;;4970613;28;20047;-67
2020/12/23 09:37:43;;;;;;;5.68;2.95;;;11.40;99.90;;;;;;4972216;28;20051;-67
2020/12/23 09:40:12;;;;;;;6.97;2.85;;;11.40;99.90;;;;;;4970088;28;20031;-68
2020/12/23 09:42:39;;;;;;;6.65;2.83;;;11.50;99.90;;;;;;4970512;28;20054;-68
2020/12/23 09:45:07;;;;;;;6.97;2.75;;;11.50;99.90;;;;;;4970700;28;20146;-68
2020/12/23 09:47:34;;;;;;;6.20;2.70;;;11.60;99.90;;;;;;4969762;28;20061;-65
2020/12/23 09:50:02;;;;;;;5.75;2.88;;;11.60;99.90;;;;;;4971652;28;20050;-67
2020/12/23 09:52:29;;;;;;;5.80;3.03;;;11.60;99.90;;;;;;4970339;28;20549;-66
2020/12/23 09:54:56;;;;;;;5.80;3.05;;;11.60;99.90;;;;;;4972193;28;20460;-67
2020/12/23 09:57:22;;;;;;;4.90;2.80;;;11.70;99.90;;;;;;4970650;28;20051;-66
2020/12/23 09:59:49;;;;;;;4.97;2.60;;;11.70;99.90;;;;;;4972207;28;20522;-68
2020/12/23 10:02:15;;;;;;;4.65;2.58;;;11.70;99.90;;;;;;4970612;28;20051;-66
2020/12/23 10:04:41;;;;;;;6.80;3.95;;;11.80;99.90;;;;;;4968685;28;20058;-68
2020/12/23 10:07:09;;;;;;;17.23;10.88;;;11.80;99.90;;;;;;4971366;28;20062;-68
2020/12/23 10:09:47;;;;;;;5.80;3.22;;;11.90;99.90;;;;;;4971739;28;20501;-68
2020/12/23 10:12:14;;;;;;;6.13;2.63;;;11.90;99.90;;;;;;4970389;28;20043;-68
2020/12/23 10:14:40;;;;;;;4.47;2.80;;;12.00;99.90;;;;;;4971397;28;20409;-68
2020/12/23 10:17:07;;;;;;;7.22;3.25;;;12.10;99.90;;;;;;4970558;28;20051;-68
2020/12/23 10:19:34;;;;;;;6.72;2.75;;;12.10;99.90;;;;;;4952115;28;20065;-67
2020/12/23 10:22:00;;;;;;;4.45;2.28;;;12.10;99.90;;;;;;4968236;28;20057;-67
2020/12/23 10:24:26;;;;;;;6.65;3.83;;;12.20;99.90;;;;;;4969215;28;20046;-69
2020/12/23 10:26:53;;;;;;;11.38;7.20;;;12.20;99.90;;;;;;4970875;28;20497;-68
2020/12/23 10:29:20;;;;;;;13.02;8.25;;;12.20;99.90;;;;;;4970936;28;20061;-68
2020/12/23 10:31:47;;;;;;;10.93;6.30;;;12.20;99.90;;;;;;4969247;28;20047;-69
2020/12/23 10:34:14;;;;;;;9.00;6.10;;;12.30;99.90;;;;;;4971151;28;20051;-69
2020/12/23 10:36:41;;;;;;;11.70;7.47;;;12.30;99.90;;;;;;4971166;28;20409;-69
2020/12/23 10:39:08;;;;;;;5.95;3.85;;;12.30;99.90;;;;;;4968234;28;20437;-69
2020/12/23 10:41:36;;;;;;;9.60;4.15;;;12.30;99.90;;;;;;4970396;28;20047;-68
2020/12/23 10:44:02;;;;;;;6.55;4.10;;;12.40;99.90;;;;;;4971030;28;20050;-68
2020/12/23 10:46:28;;;;;;;5.80;3.83;;;12.40;99.90;;;;;;4968856;28;20054;-67
2020/12/23 10:48:55;;;;;;;7.00;4.55;;;12.30;99.90;;;;;;4971552;28;20346;-68
2020/12/23 10:51:21;;;;;;;7.95;4.18;;;12.40;99.90;;;;;;4973507;28;20050;-68
2020/12/23 10:53:48;;;;;;;8.65;5.35;;;12.40;99.90;;;;;;4975462;28;20046;-68
2020/12/23 10:56:14;;;;;;;7.85;4.70;;;12.30;99.90;;;;;;4973007;28;20050;-68
2020/12/23 10:58:40;;;;;;;8.43;4.53;;;12.30;99.90;;;;;;4973784;28;20405;-68
2020/12/23 11:01:07;;;;;;;9.10;5.72;;;12.40;99.90;;;;;;4964348;28;20051;-69
2020/12/23 11:03:34;;;;;;;8.35;4.90;;;12.40;99.90;;;;;;4973678;28;20074;-68
2020/12/23 11:06:01;;;;;;;6.90;4.93;;;12.40;99.90;;;;;;4974376;28;20089;-67
2020/12/23 11:08:28;;;;;;;5.63;4.15;;;12.50;99.90;;;;;;4973582;28;20481;-67
2020/12/23 11:10:55;;;;;;;8.30;4.00;;;12.60;99.90;;;;;;4974963;28;20046;-68
2020/12/23 11:13:22;;;;;;;6.70;4.30;;;12.80;99.90;;;;;;4973378;28;20070;-69
2020/12/23 11:15:48;;;;;;;7.38;4.40;;;13.00;99.90;;;;;;4973560;28;20038;-67
2020/12/23 11:18:15;;;;;;;5.85;4.00;;;13.10;99.90;;;;;;4973365;28;20069;-68
2020/12/23 11:20:41;;;;;;;7.00;4.07;;;13.20;99.90;;;;;;4972196;28;20054;-68
2020/12/23 11:23:07;;;;;;;7.00;4.65;;;13.20;99.90;;;;;;4974561;28;20054;-68
2020/12/23 11:25:34;;;;;;;6.47;4.05;;;13.30;99.90;;;;;;4974174;28;20162;-68
2020/12/23 11:28:01;;;;;;;8.20;4.05;;;13.50;99.90;;;;;;4974352;28;20076;-68
2020/12/23 11:30:27;;;;;;;5.95;4.15;;;13.70;99.90;;;;;;4978576;28;20048;-68
2020/12/23 11:32:53;;;;;;;7.57;4.70;;;14.00;99.90;;;;;;4975391;28;20042;-68
2020/12/23 11:35:20;;;;;;;6.50;4.70;;;14.10;99.90;;;;;;4972736;28;20486;-68
2020/12/23 11:37:46;;;;;;;22.95;9.63;;;14.10;99.90;;;;;;4974248;28;20042;-68
2020/12/23 11:40:31;;;;;;;6.72;4.10;;;14.10;99.90;;;;;;4973989;28;20051;-69
2020/12/23 11:42:57;;;;;;;6.15;3.60;;;14.00;99.90;;;;;;4960414;28;20054;-67
2020/12/23 11:45:24;;;;;;;5.93;4.03;;;14.00;99.90;;;;;;4968846;28;20457;-68
2020/12/23 11:47:50;;;;;;;9.63;4.30;;;13.90;99.90;;;;;;4955007;29;20062;-68
2020/12/23 11:50:17;;;;;;;8.45;4.13;;;13.80;99.90;;;;;;4963463;28;20049;-68
2020/12/23 11:52:43;;;;;;;7.35;4.05;;;13.80;99.90;;;;;;4973506;28;20046;-68
2020/12/23 11:55:09;;;;;;;7.70;4.53;;;13.80;99.90;;;;;;4974177;28;20057;-69
2020/12/23 11:57:39;;;;;;;6.90;4.78;;;13.70;99.90;;;;;;4972338;28;20416;-67
2020/12/23 12:00:06;;;;;;;11.48;4.57;;;13.70;99.90;;;;;;4973135;28;20130;-66
2020/12/23 12:02:33;;;;;;;8.98;4.57;;;13.70;99.90;;;;;;4972370;28;20065;-67
2020/12/23 12:04:59;;;;;;;8.10;4.18;;;13.70;99.90;;;;;;4973060;28;20047;-68
2020/12/23 12:07:26;;;;;;;7.07;4.28;;;13.60;99.90;;;;;;4973158;28;20066;-68
2020/12/23 12:09:52;;;;;;;6.75;4.43;;;13.60;99.90;;;;;;4971773;28;20053;-67
2020/12/23 12:12:18;;;;;;;8.43;4.22;;;13.70;99.90;;;;;;4973370;28;20062;-67
2020/12/23 12:14:45;;;;;;;8.35;4.43;;;13.60;99.90;;;;;;4973609;28;20049;-68
2020/12/23 12:17:11;;;;;;;7.32;3.92;;;13.60;99.90;;;;;;4973555;28;20055;-67
2020/12/23 12:19:38;;;;;;;5.70;3.92;;;13.60;99.90;;;;;;4974002;28;20070;-66
2020/12/23 12:22:04;;;;;;;17.75;3.90;;;13.50;99.90;;;;;;4973782;28;20067;-66
2020/12/23 12:24:31;;;;;;;10.00;6.20;;;13.60;99.90;;;;;;4967839;28;20053;-69
2020/12/23 12:26:57;;;;;;;7.07;4.22;;;13.50;99.90;;;;;;4973171;28;20074;-67
2020/12/23 12:29:24;;;;;;;8.45;4.60;;;13.60;99.90;;;;;;4971335;28;20464;-67
2020/12/23 12:31:51;;;;;;;9.55;3.63;;;13.70;99.90;;;;;;4972778;28;20046;-67
2020/12/23 12:34:18;;;;;;;10.90;4.63;;;13.60;99.90;;;;;;4969873;28;20565;-68
2020/12/23 12:36:45;;;;;;;9.68;4.97;;;13.60;99.90;;;;;;4965176;28;20057;-67
2020/12/23 12:39:14;;;;;;;7.15;4.35;;;13.50;99.90;;;;;;4972801;28;20050;-68
2020/12/23 12:41:40;;;;;;;7.25;4.28;;;13.50;99.90;;;;;;4970079;28;20805;-68
2020/12/23 12:44:07;;;;;;;6.95;4.78;;;13.40;99.90;;;;;;4967303;28;20154;-68
2020/12/23 12:46:33;;;;;;;7.55;4.50;;;13.40;99.90;;;;;;4972443;28;20056;-67
2020/12/23 12:48:59;;;;;;;8.07;4.57;;;13.40;99.90;;;;;;4956161;28;20053;-67
2020/12/23 12:51:29;;;;;;;7.30;4.30;;;13.30;99.90;;;;;;4954796;28;20058;-68